Time;durP1;ratioP1;P1;durP2;ratioP2;P2;SDS_P1;SDS_P2;PMS_P1;PMS_P2;Temp;Humidity;BMP_temperature;BMP_pressure;BME280_temperature;BME280_humidity;BME280_pressure;Samples;Min_cycle;Max_cycle;Signal;HPM_P1;HPM_P2
2020/12/16 00:00:09;;;;;;;71.85;34.85;;;;;;;3.11;83.25;100942.06;1655592;84;25978;-77
2020/12/16 00:02:39;;;;;;;75.37;36.35;;;;;;;3.13;83.26;100944.09;1678297;84;27700;-78
2020/12/16 00:05:09;;;;;;;72.62;35.38;;;;;;;3.13;83.31;100944.09;1646899;84;26044;-78
2020/12/16 00:07:38;;;;;;;64.53;33.48;;;;;;;3.14;83.27;100952.37;1652007;84;26233;-77
2020/12/16 00:10:10;;;;;;;73.28;35.60;;;;;;;3.16;83.27;100946.97;1678382;83;25815;-77
2020/12/16 00:12:41;;;;;;;70.87;35.45;;;;;;;3.14;83.23;100940.45;1672810;83;26404;-78
2020/12/16 00:15:10;;;;;;;69.90;33.15;;;;;;;3.15;83.25;100939.98;1641623;85;27557;-77
2020/12/16 00:17:38;;;;;;;76.92;37.78;;;;;;;3.15;83.19;100942.63;1650124;85;25887;-78
2020/12/16 00:20:07;;;;;;;75.55;35.78;;;;;;;3.14;83.22;100941.78;1651210;85;26331;-78
2020/12/16 00:22:42;;;;;;;72.35;34.60;;;;;;;3.16;83.25;100945.64;1654570;85;25897;-77
2020/12/16 00:25:11;;;;;;;64.27;32.88;;;;;;;3.14;83.13;100937.00;1634507;83;25830;-78
2020/12/16 00:27:39;;;;;;;75.00;35.43;;;;;;;3.13;83.08;100949.38;1669977;83;28041;-77
2020/12/16 00:30:08;;;;;;;74.75;36.28;;;;;;;3.10;83.12;100948.30;1649307;85;26214;-78
2020/12/16 00:32:38;;;;;;;74.32;35.70;;;;;;;3.12;83.18;100941.08;1673058;84;25833;-76
2020/12/16 00:35:13;;;;;;;66.90;34.78;;;;;;;3.17;83.08;100940.69;1824205;77;25869;-78
2020/12/16 00:37:42;;;;;;;72.25;34.13;;;;;;;3.11;83.13;100939.41;1733949;80;25971;-78
2020/12/16 00:40:13;;;;;;;73.40;35.28;;;;;;;3.14;83.09;100945.75;1741227;80;27202;-78
2020/12/16 00:42:49;;;;;;;72.10;34.98;;;;;;;3.13;83.11;100948.53;1759415;80;26434;-78
2020/12/16 00:45:18;;;;;;;70.10;35.52;;;;;;;3.15;83.11;100945.27;1739513;80;25747;-77
2020/12/16 00:47:46;;;;;;;63.02;31.87;;;;;;;3.16;83.04;100954.91;1729801;81;25943;-77
2020/12/16 00:50:14;;;;;;;77.30;36.17;;;;;;;3.14;83.03;100951.05;1748639;80;25749;-77
2020/12/16 00:52:41;;;;;;;73.83;35.28;;;;;;;3.16;82.96;100958.03;1765352;80;28425;-79
2020/12/16 00:55:09;;;;;;;68.33;34.27;;;;;;;3.16;83.01;100954.06;1726592;81;25830;-77
2020/12/16 00:57:37;;;;;;;70.80;35.60;;;;;;;3.17;83.02;100949.95;1730098;80;25848;-77
2020/12/16 01:00:12;;;;;;;70.72;32.85;;;;;;;3.16;83.02;100948.77;1740934;80;25766;-77
2020/12/16 01:02:44;;;;;;;76.85;37.98;;;;;;;3.18;83.04;100949.47;1765842;80;25827;-77
2020/12/16 01:05:15;;;;;;;70.62;33.28;;;;;;;3.16;82.92;100945.64;1724695;81;27543;-77
2020/12/16 01:07:44;;;;;;;73.20;34.83;;;;;;;3.19;83.01;100951.16;1742228;80;25832;-78
2020/12/16 01:10:16;;;;;;;71.28;36.23;;;;;;;3.17;82.89;100948.63;1743835;80;25772;-77
2020/12/16 01:12:47;;;;;;;69.10;33.60;;;;;;;3.21;83.00;100945.25;1764886;80;25760;-78
2020/12/16 01:15:21;;;;;;;67.20;34.70;;;;;;;3.23;82.93;100936.70;1763725;80;26172;-77
2020/12/16 01:17:50;;;;;;;75.08;36.38;;;;;;;3.25;82.95;100946.16;1723174;81;27622;-79
2020/12/16 01:20:20;;;;;;;66.42;33.23;;;;;;;3.24;82.86;100946.30;1740598;80;25755;-78
2020/12/16 01:22:49;;;;;;;71.70;34.65;;;;;;;3.25;82.85;100948.80;1768576;80;25751;-77
2020/12/16 01:25:21;;;;;;;73.45;36.50;;;;;;;3.28;82.84;100946.38;1710187;81;25816;-78
2020/12/16 01:27:55;;;;;;;73.72;35.88;;;;;;;3.31;82.77;100949.63;1697776;83;25787;-77
2020/12/16 01:30:23;;;;;;;73.67;35.70;;;;;;;3.31;82.62;100952.75;1699427;81;28040;-77
2020/12/16 01:32:52;;;;;;;73.78;35.78;;;;;;;3.28;82.58;100947.23;1735983;81;26489;-77
2020/12/16 01:35:21;;;;;;;69.65;34.95;;;;;;;3.29;82.51;100949.40;1662133;84;25843;-78
2020/12/16 01:37:48;;;;;;;70.28;34.67;;;;;;;3.27;82.44;100948.22;1682102;83;25746;-79
2020/12/16 01:40:16;;;;;;;67.10;34.38;;;;;;;3.26;82.34;100944.35;1699002;83;25463;-78
2020/12/16 01:42:46;;;;;;;64.27;33.38;;;;;;;3.22;82.35;100947.76;1711167;83;28539;-77
2020/12/16 01:45:18;;;;;;;64.40;32.38;;;;;;;3.20;82.37;100943.08;1685632;83;25795;-78
2020/12/16 01:47:46;;;;;;;69.03;33.10;;;;;;;3.21;82.33;100943.92;1689862;83;25769;-76
2020/12/16 01:50:16;;;;;;;65.40;33.10;;;;;;;3.20;82.34;100947.05;1698368;83;26426;-77
2020/12/16 01:52:46;;;;;;;63.30;33.28;;;;;;;3.20;82.41;100944.41;1708038;83;25875;-77
2020/12/16 01:55:15;;;;;;;65.25;32.67;;;;;;;3.19;82.33;100942.72;1686159;83;28566;-76
2020/12/16 01:57:49;;;;;;;66.15;33.18;;;;;;;3.18;82.35;100940.20;1659424;84;25798;-77
2020/12/16 02:00:18;;;;;;;71.40;32.70;;;;;;;3.17;82.38;100940.69;1679825;84;26278;-78
2020/12/16 02:02:49;;;;;;;71.77;34.83;;;;;;;3.18;82.39;100942.86;1670598;83;25789;-77
2020/12/16 02:05:22;;;;;;;67.97;33.67;;;;;;;3.15;82.39;100939.98;1707227;83;25800;-77
2020/12/16 02:07:55;;;;;;;66.65;33.55;;;;;;;3.18;82.44;100941.05;1714544;80;28621;-77
2020/12/16 02:10:23;;;;;;;70.78;34.03;;;;;;;3.21;82.41;100943.42;1756007;80;25830;-78
2020/12/16 02:12:51;;;;;;;65.22;32.30;;;;;;;3.21;82.39;100941.28;1725424;82;25799;-78
2020/12/16 02:15:18;;;;;;;71.37;34.90;;;;;;;3.21;82.39;100938.63;1751751;80;26101;-77
2020/12/16 02:17:49;;;;;;;67.00;33.33;;;;;;;3.21;82.28;100946.58;1641450;82;25918;-78
2020/12/16 02:20:17;;;;;;;61.25;31.42;;;;;;;3.18;82.27;100943.70;1687813;83;27611;-78
2020/12/16 02:22:51;;;;;;;68.00;33.05;;;;;;;3.17;82.27;100943.33;1701124;80;25863;-78
2020/12/16 02:25:20;;;;;;;69.95;33.13;;;;;;;3.13;82.24;100933.50;1737127;80;25874;-77
2020/12/16 02:27:49;;;;;;;69.22;31.82;;;;;;;3.16;82.32;100934.20;1722013;82;26363;-77
2020/12/16 02:30:18;;;;;;;65.70;32.38;;;;;;;3.13;82.24;100932.18;1722779;80;25803;-77
2020/12/16 02:33:04;;;;;;;62.75;31.95;;;;;;;3.13;82.20;100930.86;1734261;81;27318;-77
2020/12/16 02:35:33;;;;;;;65.42;32.75;;;;;;;3.11;82.14;100933.27;1766715;80;25898;-77
2020/12/16 02:38:03;;;;;;;68.57;34.00;;;;;;;3.09;82.13;100925.48;1734975;80;25868;-77
2020/12/16 02:40:32;;;;;;;65.72;31.68;;;;;;;3.10;82.18;100940.88;1726265;81;25739;-78
2020/12/16 02:42:59;;;;;;;65.67;33.23;;;;;;;3.11;82.10;100945.19;1732677;81;25841;-77
2020/12/16 02:45:28;;;;;;;62.75;30.90;;;;;;;3.08;82.06;100948.08;1761411;80;27533;-78
2020/12/16 02:48:08;;;;;;;69.25;33.20;;;;;;;3.13;82.03;100935.30;1809052;77;26550;-77
2020/12/16 02:50:37;;;;;;;72.65;33.98;;;;;;;3.07;82.00;100939.33;1750807;80;25774;-77
2020/12/16 02:53:05;;;;;;;68.25;33.75;;;;;;;3.06;82.04;100936.78;1696010;81;27593;-77
2020/12/16 02:55:34;;;;;;;65.47;31.23;;;;;;;3.07;82.02;100937.16;1746675;80;25838;-77
2020/12/16 02:58:03;;;;;;;62.55;31.45;;;;;;;3.04;82.05;100939.58;1779792;80;25856;-78
2020/12/16 03:00:31;;;;;;;71.85;32.58;;;;;;;3.03;82.00;100932.62;1752422;80;25869;-78
2020/12/16 03:02:58;;;;;;;68.55;32.70;;;;;;;3.04;82.12;100942.22;1743845;80;25854;-77
2020/12/16 03:05:44;;;;;;;76.43;41.40;;;;;;;3.10;82.09;100944.84;1854843;76;35339;-76
2020/12/16 03:08:13;;;;;;;67.55;34.83;;;;;;;3.28;81.64;100946.38;1729863;81;25865;-77
2020/12/16 03:10:46;;;;;;;69.17;33.28;;;;;;;3.24;81.76;100950.27;1688559;82;28539;-77
2020/12/16 03:13:13;;;;;;;65.85;31.57;;;;;;;3.22;81.82;100960.99;1716937;80;26495;-78
2020/12/16 03:15:41;;;;;;;67.92;32.78;;;;;;;3.21;81.88;100955.84;1770557;80;25766;-77
2020/12/16 03:18:08;;;;;;;66.45;32.95;;;;;;;3.21;81.89;100957.98;1744605;80;25946;-78
2020/12/16 03:20:36;;;;;;;65.08;33.67;;;;;;;3.19;81.84;100957.78;1741910;80;25813;-78
2020/12/16 03:23:04;;;;;;;62.62;32.20;;;;;;;3.19;81.92;100954.63;1695154;81;27332;-77
2020/12/16 03:25:44;;;;;;;69.27;33.08;;;;;;;3.23;81.82;100956.55;1823198;77;25846;-77
2020/12/16 03:28:27;;;;;;;69.22;33.33;;;;;;;3.19;81.87;100958.59;1798186;79;25652;-77
2020/12/16 03:31:19;;;;;;;65.65;32.40;;;;;;;3.17;81.80;100958.37;1778313;79;25937;-77
2020/12/16 03:33:48;;;;;;;67.47;32.50;;;;;;;3.09;81.91;100959.88;1656948;83;26080;-77
2020/12/16 03:36:20;;;;;;;72.27;34.88;;;;;;;3.08;81.90;100963.48;1675215;83;27549;-77
2020/12/16 03:38:49;;;;;;;63.35;30.48;;;;;;;3.09;81.97;100970.94;1626726;85;25816;-77
2020/12/16 03:41:17;;;;;;;65.15;31.90;;;;;;;3.06;81.91;100969.87;1716395;82;26372;-77
2020/12/16 03:43:50;;;;;;;62.80;31.05;;;;;;;3.05;81.93;100969.53;1684431;82;25777;-79
2020/12/16 03:46:18;;;;;;;70.32;33.23;;;;;;;3.04;81.98;100962.06;1670438;82;25967;-77
2020/12/16 03:48:47;;;;;;;73.30;33.15;;;;;;;3.05;82.05;100973.02;1684714;83;28023;-79
2020/12/16 03:51:16;;;;;;;67.62;31.75;;;;;;;3.04;82.09;100972.66;1692697;82;25797;-77
2020/12/16 03:53:45;;;;;;;70.93;32.53;;;;;;;3.05;82.02;100972.17;1713569;82;26383;-78
2020/12/16 03:56:22;;;;;;;65.40;31.77;;;;;;;3.10;81.98;100974.77;1868525;76;25794;-78
2020/12/16 03:59:08;;;;;;;66.10;31.93;;;;;;;3.06;82.05;100975.16;1790702;77;26046;-77
2020/12/16 04:02:00;;;;;;;63.38;31.35;;;;;;;3.11;82.02;100967.20;1829285;77;25806;-77
2020/12/16 04:04:29;;;;;;;65.37;31.95;;;;;;;3.07;82.06;100969.76;1763177;80;26177;-77
2020/12/16 04:06:58;;;;;;;63.08;31.42;;;;;;;3.10;82.08;100971.31;1783251;79;27526;-77
2020/12/16 04:09:27;;;;;;;66.28;31.42;;;;;;;3.10;82.04;100964.70;1720498;81;25859;-78
2020/12/16 04:11:56;;;;;;;60.33;30.85;;;;;;;3.14;82.10;100971.41;1689671;82;25789;-77
2020/12/16 04:14:25;;;;;;;65.95;31.95;;;;;;;3.16;82.05;100977.41;1710719;81;25779;-78
2020/12/16 04:16:58;;;;;;;63.90;32.03;;;;;;;3.17;81.96;100982.19;1642245;82;26195;-78
2020/12/16 04:19:27;;;;;;;61.15;31.05;;;;;;;3.19;82.00;100981.61;1715301;81;27581;-79
2020/12/16 04:21:58;;;;;;;65.35;32.73;;;;;;;3.22;81.99;100982.64;1722922;82;25696;-77
2020/12/16 04:24:27;;;;;;;57.08;30.27;;;;;;;3.24;81.99;100984.20;1717109;81;26423;-77
2020/12/16 04:27:04;;;;;;;58.45;29.32;;;;;;;3.31;81.95;100981.39;1794479;79;25707;-77
2020/12/16 04:29:32;;;;;;;62.55;30.92;;;;;;;3.28;81.91;100980.32;1729464;81;26177;-78
2020/12/16 04:31:59;;;;;;;64.17;32.10;;;;;;;3.28;81.82;100977.67;1720928;81;27544;-77
2020/12/16 04:34:28;;;;;;;64.80;30.10;;;;;;;3.30;81.75;100984.15;1737618;80;26426;-78
2020/12/16 04:36:56;;;;;;;63.35;30.40;;;;;;;3.31;81.73;100976.58;1742625;81;25794;-77
2020/12/16 04:39:26;;;;;;;59.25;28.85;;;;;;;3.32;81.75;100968.50;1665332;83;25816;-77
2020/12/16 04:41:54;;;;;;;63.05;29.40;;;;;;;3.31;81.60;100969.95;1699745;83;26396;-77
2020/12/16 04:44:23;;;;;;;60.90;30.80;;;;;;;3.30;81.63;100975.73;1710820;82;28288;-78
2020/12/16 04:46:53;;;;;;;62.48;30.82;;;;;;;3.29;81.59;100966.13;1735864;81;26149;-78
2020/12/16 04:49:23;;;;;;;60.92;30.60;;;;;;;3.28;81.62;100961.78;1687333;83;26208;-77
2020/12/16 04:51:52;;;;;;;53.80;29.77;;;;;;;3.30;81.71;100968.27;1655457;84;26358;-76
2020/12/16 04:54:21;;;;;;;58.60;29.98;;;;;;;3.30;81.54;100967.79;1663256;83;25829;-77
2020/12/16 04:56:50;;;;;;;64.47;32.35;;;;;;;3.28;81.49;100965.76;1707629;82;28498;-77
2020/12/16 04:59:22;;;;;;;62.48;30.65;;;;;;;3.26;81.53;100970.34;1682872;83;25783;-77
2020/12/16 05:02:04;;;;;;;62.78;31.57;;;;;;;3.24;81.57;100961.70;1680122;83;25793;-77
2020/12/16 05:04:33;;;;;;;66.10;33.63;;;;;;;3.23;81.50;100964.48;1692712;83;25829;-76
2020/12/16 05:07:00;;;;;;;59.23;30.50;;;;;;;3.18;81.57;100968.00;1704654;83;26067;-78
2020/12/16 05:09:28;;;;;;;63.50;32.83;;;;;;;3.17;81.75;100967.16;1664677;83;27560;-78
2020/12/16 05:11:55;;;;;;;60.28;30.90;;;;;;;3.16;81.79;100967.30;1660297;84;25807;-77
2020/12/16 05:14:24;;;;;;;66.97;32.70;;;;;;;3.16;81.81;100968.14;1705796;82;26029;-76
2020/12/16 05:17:06;;;;;;;61.55;32.58;;;;;;;3.16;81.80;100974.76;1703658;82;25894;-78
2020/12/16 05:19:45;;;;;;;67.97;32.78;;;;;;;3.15;81.82;100974.39;1669713;83;25826;-77
2020/12/16 05:22:29;;;;;;;66.53;33.55;;;;;;;3.14;81.82;100977.52;1684479;83;27557;-78
2020/12/16 05:24:59;;;;;;;66.02;33.67;;;;;;;3.17;81.90;100984.84;1703772;83;25813;-77
2020/12/16 05:27:32;;;;;;;64.50;33.10;;;;;;;3.20;81.95;100985.91;1658831;83;25821;-77
2020/12/16 05:30:05;;;;;;;63.45;31.87;;;;;;;3.21;81.88;100990.25;1650695;84;25896;-77
2020/12/16 05:32:35;;;;;;;61.80;31.60;;;;;;;3.22;81.83;100993.23;1681087;83;26136;-77
2020/12/16 05:35:25;;;;;;;59.15;30.27;;;;;;;3.21;81.79;100990.25;1702723;83;28545;-77
2020/12/16 05:38:06;;;;;;;58.65;28.92;;;;;;;3.22;81.84;100991.44;1681570;82;26549;-78
2020/12/16 05:40:38;;;;;;;55.48;27.48;;;;;;;3.20;81.79;100991.20;1665113;85;25861;-77
2020/12/16 05:43:27;;;;;;;56.70;27.77;;;;;;;3.22;81.67;100994.56;1793941;79;25900;-77
2020/12/16 05:45:55;;;;;;;50.28;25.68;;;;;;;3.13;81.76;100998.34;1744537;81;25745;-77
2020/12/16 05:48:28;;;;;;;54.55;25.88;;;;;;;3.12;81.78;100998.48;1678870;82;27529;-77
2020/12/16 05:50:58;;;;;;;52.62;26.87;;;;;;;3.10;81.85;101003.07;1695528;82;26043;-77
2020/12/16 05:53:28;;;;;;;52.65;26.73;;;;;;;3.10;81.90;100996.45;1727709;80;25845;-77
2020/12/16 05:55:59;;;;;;;50.55;25.75;;;;;;;3.13;81.93;100994.85;1676618;81;25856;-77
2020/12/16 05:58:29;;;;;;;49.18;25.65;;;;;;;3.14;81.95;100996.55;1682213;82;25779;-77
2020/12/16 06:01:01;;;;;;;50.30;24.67;;;;;;;3.16;81.96;100997.26;1694897;82;27346;-77
2020/12/16 06:03:37;;;;;;;51.02;25.25;;;;;;;3.17;81.95;100992.30;1724264;81;25900;-78
2020/12/16 06:06:08;;;;;;;44.05;24.27;;;;;;;3.17;81.91;101001.56;1729522;82;25730;-77
2020/12/16 06:08:44;;;;;;;47.13;23.65;;;;;;;3.22;81.94;100995.88;1800852;79;25589;-77
2020/12/16 06:11:12;;;;;;;48.90;25.45;;;;;;;3.17;81.94;100994.09;1711801;82;25922;-77
2020/12/16 06:13:46;;;;;;;49.55;25.35;;;;;;;3.19;81.95;100998.30;1726337;82;26806;-77
2020/12/16 06:16:14;;;;;;;46.13;23.70;;;;;;;3.21;81.93;101001.66;1721363;81;25707;-78
2020/12/16 06:18:47;;;;;;;46.95;23.80;;;;;;;3.22;81.94;100995.88;1721537;81;26484;-76
2020/12/16 06:21:15;;;;;;;48.02;24.85;;;;;;;3.22;81.92;100993.23;1665238;82;26553;-79
2020/12/16 06:23:44;;;;;;;50.92;24.47;;;;;;;3.22;81.91;100994.08;1676190;82;25968;-79
2020/12/16 06:26:16;;;;;;;53.68;25.25;;;;;;;3.25;81.89;100998.28;1705164;82;28278;-81
2020/12/16 06:28:45;;;;;;;42.90;23.02;;;;;;;3.25;81.90;101000.42;1715167;81;25431;-79
2020/12/16 06:31:21;;;;;;;44.65;22.95;;;;;;;3.26;81.90;101000.80;1663573;82;25744;-79
2020/12/16 06:34:12;;;;;;;45.15;24.12;;;;;;;3.28;81.91;100998.00;1701627;82;25890;-79
2020/12/16 06:36:41;;;;;;;;;;;;;;;3.28;81.89;101002.83;1706093;82;25824;-79
2020/12/16 06:39:18;;;;;;;46.98;23.15;;;;;;;3.31;81.96;101007.02;1727187;81;27516;-80
2020/12/16 06:41:58;;;;;;;44.98;23.52;;;;;;;3.31;81.99;101005.70;1698702;82;25872;-79
2020/12/16 06:44:27;;;;;;;47.90;23.70;;;;;;;3.36;82.00;101014.10;1704628;80;25831;-80
2020/12/16 06:46:57;;;;;;;49.85;24.43;;;;;;;3.34;81.93;101012.89;1707915;82;25524;-80
2020/12/16 06:49:28;;;;;;;49.85;23.30;;;;;;;3.37;82.01;101015.28;1708127;80;26369;-79
2020/12/16 06:52:03;;;;;;;43.87;21.37;;;;;;;3.38;81.96;101022.75;1698685;82;27586;-78
2020/12/16 06:54:41;;;;;;;43.38;23.40;;;;;;;3.40;81.88;101028.75;1694534;82;25813;-79
2020/12/16 06:57:25;;;;;;;48.73;25.50;;;;;;;3.38;81.89;101035.48;1692111;81;25838;-78
2020/12/16 07:00:02;;;;;;;55.08;26.10;;;;;;;3.45;81.83;101038.45;1783153;78;25708;-78
2020/12/16 07:02:35;;;;;;;52.90;25.20;;;;;;;3.39;81.90;101045.12;1729698;80;26120;-78
2020/12/16 07:05:06;;;;;;;52.30;26.77;;;;;;;3.40;81.80;101045.97;1733268;81;28431;-78
2020/12/16 07:07:49;;;;;;;56.13;26.95;;;;;;;3.36;81.78;101045.36;1719487;81;25899;-78
2020/12/16 07:10:41;;;;;;;55.85;27.13;;;;;;;3.35;81.85;101046.35;1742355;81;25388;-78
2020/12/16 07:13:29;;;;;;;50.28;25.57;;;;;;;3.36;81.89;101055.14;1715705;81;25725;-78
2020/12/16 07:16:07;;;;;;;48.65;24.30;;;;;;;3.37;81.91;101056.80;1692224;81;26493;-78
2020/12/16 07:18:46;;;;;;;51.20;24.30;;;;;;;3.36;81.94;101061.25;1713867;81;27478;-77
2020/12/16 07:21:18;;;;;;;51.83;24.55;;;;;;;3.37;81.87;101063.42;1715907;82;25557;-79
2020/12/16 07:24:08;;;;;;;50.80;24.67;;;;;;;3.34;81.90;101065.84;1694901;81;25752;-78
2020/12/16 07:26:43;;;;;;;49.35;23.42;;;;;;;3.34;81.96;101067.64;1715160;82;25837;-78
2020/12/16 07:29:29;;;;;;;45.65;23.32;;;;;;;3.35;82.02;101071.98;1714127;82;25944;-79
2020/12/16 07:32:04;;;;;;;46.58;22.37;;;;;;;3.34;81.95;101074.26;1739392;81;28231;-78
2020/12/16 07:34:53;;;;;;;39.58;19.32;;;;;;;3.36;82.10;101073.67;1713628;81;25977;-78
2020/12/16 07:37:26;;;;;;;42.17;22.25;;;;;;;3.35;82.04;101081.25;1722245;81;25726;-78
2020/12/16 07:40:01;;;;;;;46.48;24.37;;;;;;;3.34;82.13;101075.58;1747847;81;25730;-77
2020/12/16 07:42:36;;;;;;;44.85;24.57;;;;;;;3.36;82.17;101078.97;1739632;81;26130;-78
2020/12/16 07:45:10;;;;;;;42.73;21.82;;;;;;;3.38;82.17;101077.03;1684635;82;26392;-77
2020/12/16 07:47:41;;;;;;;43.05;21.62;;;;;;;3.40;82.10;101085.69;1682760;81;26303;-78
2020/12/16 07:50:11;;;;;;;45.17;22.48;;;;;;;3.40;82.08;101087.83;1711175;82;26441;-78
2020/12/16 07:52:40;;;;;;;43.40;23.12;;;;;;;3.42;82.16;101091.69;1691780;81;26232;-77
2020/12/16 07:55:08;;;;;;;43.50;22.30;;;;;;;3.42;82.21;101096.98;1695204;81;26440;-78
2020/12/16 07:57:38;;;;;;;49.23;23.32;;;;;;;3.42;82.22;101092.50;1705064;81;28458;-78
2020/12/16 08:00:05;;;;;;;42.93;21.97;;;;;;;3.46;82.24;101092.62;1711757;81;25950;-78
2020/12/16 08:02:38;;;;;;;41.55;21.42;;;;;;;3.48;82.27;101103.08;1750833;81;26378;-77
2020/12/16 08:05:05;;;;;;;;;;;;;;;3.50;82.25;101101.14;1701767;81;25847;-78
2020/12/16 08:07:33;;;;;;;39.88;19.95;;;;;;;3.53;82.26;101101.72;1718518;81;26163;-79
2020/12/16 08:10:07;;;;;;;62.75;29.42;;;;;;;3.52;82.18;101107.16;1710461;81;27416;-78
2020/12/16 08:12:40;;;;;;;47.43;23.05;;;;;;;3.55;82.25;101109.05;1689059;81;25870;-78
2020/12/16 08:15:19;;;;;;;58.83;35.35;;;;;;;3.57;82.23;101108.43;1703368;81;25772;-79
2020/12/16 08:17:51;;;;;;;51.00;30.37;;;;;;;3.58;82.15;101106.62;1711088;83;25804;-77
2020/12/16 08:20:23;;;;;;;51.92;29.50;;;;;;;3.59;82.18;101119.73;1709591;81;25892;-77
2020/12/16 08:22:58;;;;;;;67.10;33.02;;;;;;;3.62;82.25;101117.31;1710814;81;27638;-78
2020/12/16 08:25:27;;;;;;;138.95;62.00;;;;;;;3.63;82.14;101125.63;1665726;82;32257;-79
2020/12/16 08:27:59;;;;;;;80.30;45.10;;;;;;;3.67;82.26;101128.37;1649908;84;25525;-83
2020/12/16 08:30:32;;;;;;;49.45;27.58;;;;;;;3.68;82.27;101129.56;1638649;84;25519;-83
2020/12/16 08:33:14;;;;;;;46.45;26.80;;;;;;;3.72;82.24;101123.53;1623250;84;25858;-80
2020/12/16 08:36:06;;;;;;;45.08;24.00;;;;;;;3.76;82.24;101123.62;1665271;84;28708;-80
2020/12/16 08:38:45;;;;;;;43.78;23.85;;;;;;;3.76;82.15;101120.47;1669774;84;25933;-79
2020/12/16 08:41:15;;;;;;;42.75;24.15;;;;;;;3.78;82.08;101119.88;1682557;84;26150;-79
2020/12/16 08:43:43;;;;;;;45.85;25.10;;;;;;;3.76;82.12;101123.62;1646686;84;26252;-78
2020/12/16 08:46:15;;;;;;;47.83;23.67;;;;;;;3.79;82.19;101127.32;1636886;83;26041;-81
2020/12/16 08:48:50;;;;;;;42.65;23.27;;;;;;;3.80;82.16;101131.19;1671689;84;27539;-78
2020/12/16 08:51:22;;;;;;;43.85;21.87;;;;;;;3.81;82.12;101133.33;1665436;84;25855;-79
2020/12/16 08:54:00;;;;;;;47.33;24.90;;;;;;;3.81;82.13;101131.53;1682991;84;26167;-80
2020/12/16 08:56:42;;;;;;;43.92;23.12;;;;;;;3.86;82.26;101131.14;1648645;84;26266;-79
2020/12/16 08:59:23;;;;;;;41.92;23.22;;;;;;;3.88;82.12;101134.49;1665130;84;25749;-79
2020/12/16 09:01:53;;;;;;;;;;;;;;;3.89;82.14;101129.05;1670793;84;27068;-79
2020/12/16 09:04:30;;;;;;;45.15;22.90;;;;;;;3.93;82.11;101126.16;1662632;84;25807;-78
2020/12/16 09:07:14;;;;;;;41.90;22.87;;;;;;;3.92;82.04;101126.63;1669513;84;26632;-79
2020/12/16 09:09:49;;;;;;;44.45;26.65;;;;;;;3.93;82.06;101126.49;1657678;84;25804;-78
2020/12/16 09:12:20;;;;;;;43.90;22.77;;;;;;;3.96;82.14;101136.00;1691316;84;25857;-77
2020/12/16 09:14:56;;;;;;;45.10;23.32;;;;;;;4.00;82.10;101139.25;1638908;84;32730;-78
2020/12/16 09:17:35;;;;;;;46.35;22.85;;;;;;;4.00;82.14;101136.59;1646007;84;26127;-76
2020/12/16 09:20:06;;;;;;;44.45;22.00;;;;;;;4.03;82.15;101137.64;1681151;84;25889;-79
2020/12/16 09:22:33;;;;;;;48.38;24.77;;;;;;;4.05;82.15;101130.39;1663222;84;25776;-79
2020/12/16 09:25:05;;;;;;;42.90;22.85;;;;;;;4.07;82.07;101129.30;1627336;83;25780;-79
2020/12/16 09:27:32;;;;;;;43.05;23.42;;;;;;;4.10;82.17;101124.22;1677533;84;27599;-79
2020/12/16 09:30:01;;;;;;;41.40;21.02;;;;;;;4.12;82.17;101131.08;1643875;84;26160;-78
2020/12/16 09:32:30;;;;;;;42.20;22.40;;;;;;;4.15;82.08;101130.79;1677967;84;25374;-78
2020/12/16 09:34:57;;;;;;;49.60;22.65;;;;;;;4.16;81.91;101136.94;1592533;86;26468;-78
2020/12/16 09:37:35;;;;;;;40.85;21.48;;;;;;;4.16;81.94;101149.72;1625704;86;26503;-78
2020/12/16 09:40:09;;;;;;;40.73;20.68;;;;;;;4.18;81.88;101154.40;1622333;86;27316;-76
2020/12/16 09:42:37;;;;;;;49.25;23.73;;;;;;;4.18;81.85;101157.05;1659015;85;26394;-77
2020/12/16 09:45:12;;;;;;;52.67;24.98;;;;;;;4.19;81.94;101155.25;1579286;87;25868;-78
2020/12/16 09:47:45;;;;;;;44.80;24.32;;;;;;;4.22;81.99;101151.83;1596438;87;26178;-79
2020/12/16 09:50:12;;;;;;;47.90;24.12;;;;;;;4.26;81.97;101151.92;1612567;86;26423;-79
2020/12/16 09:52:42;;;;;;;40.90;23.15;;;;;;;4.31;82.05;101148.39;1601276;85;28487;-77
2020/12/16 09:55:22;;;;;;;45.50;23.07;;;;;;;4.35;82.11;101143.17;1615402;86;26119;-77
2020/12/16 09:58:11;;;;;;;44.10;22.02;;;;;;;4.39;82.13;101143.25;1610006;87;26581;-77
2020/12/16 10:00:42;;;;;;;37.38;21.60;;;;;;;4.43;82.20;101147.79;1626216;85;25831;-77
2020/12/16 10:03:12;;;;;;;48.25;23.57;;;;;;;4.45;82.08;101151.15;1633287;87;26270;-78
2020/12/16 10:05:42;;;;;;;46.28;22.55;;;;;;;4.47;82.17;101148.72;1581690;86;27502;-78
2020/12/16 10:08:11;;;;;;;47.45;24.70;;;;;;;4.50;82.12;101149.79;1615610;85;26264;-78
2020/12/16 10:10:40;;;;;;;48.05;24.50;;;;;;;4.53;82.14;101148.69;1639461;85;26329;-78
2020/12/16 10:13:08;;;;;;;43.63;23.10;;;;;;;4.57;82.21;101150.09;1654246;85;25829;-78
2020/12/16 10:15:35;;;;;;;47.83;25.02;;;;;;;4.61;82.11;101154.16;1573139;87;25901;-78
2020/12/16 10:18:03;;;;;;;45.33;23.25;;;;;;;4.63;82.08;101152.20;1605348;87;27549;-78
2020/12/16 10:20:31;;;;;;;51.58;26.02;;;;;;;4.64;81.89;101158.69;1627994;86;25818;-78
2020/12/16 10:23:02;;;;;;;46.88;24.50;;;;;;;4.68;82.10;101164.59;1660531;86;25885;-78
2020/12/16 10:25:31;;;;;;;54.48;25.85;;;;;;;4.70;82.01;101164.77;1616167;85;26175;-78
2020/12/16 10:27:58;;;;;;;55.10;28.98;;;;;;;4.73;82.21;101159.69;1633290;86;26195;-78
2020/12/16 10:30:27;;;;;;;54.67;25.82;;;;;;;4.77;82.23;101162.42;1623303;86;28104;-79
2020/12/16 10:32:57;;;;;;;53.25;29.57;;;;;;;4.80;82.16;101170.13;1635582;86;26789;-78
2020/12/16 10:35:24;;;;;;;55.48;27.27;;;;;;;4.82;82.18;101172.16;1611666;86;26344;-78
2020/12/16 10:37:52;;;;;;;48.35;23.05;;;;;;;4.85;81.96;101177.20;1636690;85;26434;-78
2020/12/16 10:40:20;;;;;;;48.50;26.05;;;;;;;4.86;82.03;101175.36;1623558;86;25817;-78
2020/12/16 10:42:48;;;;;;;43.85;22.55;;;;;;;4.88;82.04;101174.73;1615761;87;27406;-78
2020/12/16 10:45:15;;;;;;;48.73;23.92;;;;;;;4.90;82.13;101174.95;1649903;85;26232;-79
2020/12/16 10:47:43;;;;;;;47.48;23.12;;;;;;;4.93;82.13;101177.84;1593615;87;26178;-78
2020/12/16 10:50:11;;;;;;;74.80;33.58;;;;;;;4.98;82.18;101180.94;1640064;85;25459;-78
2020/12/16 10:52:38;;;;;;;66.28;32.35;;;;;;;5.01;82.20;101166.03;1638960;85;25827;-77
2020/12/16 10:55:06;;;;;;;148.35;70.32;;;;;;;5.05;82.19;101171.42;1632949;87;27555;-79
2020/12/16 10:57:33;;;;;;;79.03;41.77;;;;;;;5.09;82.17;101171.02;1600705;86;25821;-78
2020/12/16 11:00:00;;;;;;;59.13;29.90;;;;;;;5.12;82.09;101165.44;1579619;89;25864;-79
2020/12/16 11:02:28;;;;;;;51.40;25.40;;;;;;;5.15;82.06;101168.31;1587791;88;25909;-79
2020/12/16 11:04:55;;;;;;;82.00;40.78;;;;;;;5.17;82.07;101171.67;1619736;88;25893;-79
2020/12/16 11:07:23;;;;;;;173.22;88.82;;;;;;;5.20;82.09;101166.91;1569581;88;27573;-80
2020/12/16 11:09:50;;;;;;;134.00;69.62;;;;;;;5.21;81.93;101176.56;1573203;88;25887;-80
2020/12/16 11:12:17;;;;;;;151.57;78.33;;;;;;;5.22;81.88;101180.04;1598531;88;25454;-79
2020/12/16 11:14:45;;;;;;;95.32;51.98;;;;;;;5.22;81.99;101178.23;1609649;88;25829;-80
2020/12/16 11:17:12;;;;;;;71.42;40.52;;;;;;;5.24;81.97;101176.75;1595637;88;25833;-79
2020/12/16 11:19:40;;;;;;;56.95;28.90;;;;;;;5.24;81.99;101180.25;1581670;88;27639;-79
2020/12/16 11:22:08;;;;;;;60.15;31.57;;;;;;;5.23;82.01;101175.94;1601576;88;25904;-80
2020/12/16 11:24:35;;;;;;;49.75;25.70;;;;;;;5.24;82.14;101185.57;1607256;87;26013;-79
2020/12/16 11:27:02;;;;;;;53.20;29.15;;;;;;;5.24;82.16;101186.05;1559226;88;26030;-80
2020/12/16 11:29:30;;;;;;;47.23;24.05;;;;;;;5.23;82.21;101196.34;1586431;88;25809;-79
2020/12/16 11:31:59;;;;;;;96.22;42.08;;;;;;;5.22;82.29;101203.46;1604718;88;27103;-78
2020/12/16 11:34:28;;;;;;;68.30;34.98;;;;;;;5.21;82.31;101198.30;1610031;88;25817;-79
2020/12/16 11:36:59;;;;;;;53.83;29.37;;;;;;;5.20;82.36;101196.59;1573733;88;25854;-80